Time;durP1;ratioP1;P1;durP2;ratioP2;P2;SDS_P1;SDS_P2;PMS_P1;PMS_P2;Temp;Humidity;BMP_temperature;BMP_pressure;BME280_temperature;BME280_humidity;BME280_pressure;Samples;Min_cycle;Max_cycle;Signal;HPM_P1;HPM_P2
2021/04/23 00:01:40;;;;;;;11.98;3.75;;;2.60;98.80;;;;;;10469189;28;20118;-68
2021/04/23 00:06:45;;;;;;;18.13;4.40;;;2.70;96.40;;;;;;10466966;28;20044;-67
2021/04/23 00:11:52;;;;;;;12.45;4.03;;;2.70;96.10;;;;;;10464564;28;20056;-68
2021/04/23 00:16:54;;;;;;;21.65;3.47;;;2.50;97.60;;;;;;10465661;28;20145;-68
2021/04/23 00:21:58;;;;;;;19.40;4.00;;;2.40;95.60;;;;;;10468515;28;20049;-67
2021/04/23 00:26:59;;;;;;;7.05;3.53;;;2.20;98.40;;;;;;10468074;28;20052;-67
2021/04/23 00:37:21;;;;;;;8.82;4.05;;;2.20;95.90;;;;;;10468507;28;20169;-68
2021/04/23 00:42:23;;;;;;;14.45;3.92;;;2.00;95.70;;;;;;10471332;28;20052;-68
2021/04/23 00:47:24;;;;;;;16.55;4.10;;;1.70;95.80;;;;;;10475986;28;20139;-68
2021/04/23 00:52:26;;;;;;;16.05;4.05;;;1.50;96.10;;;;;;10475217;28;20040;-68
2021/04/23 00:57:27;;;;;;;13.70;3.53;;;1.40;96.20;;;;;;10475406;28;20067;-68
2021/04/23 01:02:29;;;;;;;12.25;3.63;;;1.40;96.40;;;;;;10475063;28;20048;-68
2021/04/23 01:07:32;;;;;;;7.37;3.73;;;1.40;98.70;;;;;;10475453;28;20077;-68
2021/04/23 01:12:33;;;;;;;18.33;3.92;;;1.30;96.60;;;;;;10475617;28;21619;-69
2021/04/23 01:17:34;;;;;;;13.38;3.78;;;1.40;96.60;;;;;;10466618;28;20040;-69
2021/04/23 01:22:37;;;;;;;23.87;5.10;;;1.50;96.70;;;;;;10476261;28;20079;-68
2021/04/23 01:27:38;;;;;;;14.82;4.13;;;1.20;98.60;;;;;;10474048;28;20867;-69
2021/04/23 01:32:40;;;;;;;19.88;5.13;;;1.40;96.60;;;;;;10473010;28;20055;-69
2021/04/23 01:37:43;;;;;;;19.17;3.97;;;1.40;96.50;;;;;;10475208;28;20606;-68
2021/04/23 01:42:45;;;;;;;11.13;4.00;;;0.90;98.50;;;;;;10475533;28;20505;-70
2021/04/23 01:47:47;;;;;;;21.65;3.92;;;1.20;96.50;;;;;;10475788;28;20127;-69
2021/04/23 01:52:49;;;;;;;13.82;5.38;;;1.10;96.30;;;;;;10474989;28;20478;-69
2021/04/23 01:57:51;;;;;;;15.52;4.75;;;1.20;96.70;;;;;;10475533;28;20481;-68
2021/04/23 02:02:53;;;;;;;17.90;4.90;;;0.80;96.10;;;;;;10477622;28;20119;-68
2021/04/23 02:07:56;;;;;;;14.87;4.30;;;0.70;96.30;;;;;;10476522;28;20051;-68
2021/04/23 02:12:58;;;;;;;17.77;4.30;;;0.10;98.60;;;;;;10474108;28;20451;-68
2021/04/23 02:18:01;;;;;;;22.10;4.93;;;0.40;96.60;;;;;;10475916;28;20846;-68
2021/04/23 02:23:06;;;;;;;15.90;4.43;;;0.30;96.40;;;;;;10475873;28;20066;-68
2021/04/23 02:28:10;;;;;;;12.20;4.43;;;0.30;97.00;;;;;;10474720;28;20138;-68
2021/04/23 02:33:15;;;;;;;18.80;4.80;;;0.30;96.90;;;;;;10474081;28;20127;-68
2021/04/23 02:38:18;;;;;;;9.53;5.03;;;0.50;96.90;;;;;;10470784;28;20067;-68
2021/04/23 02:43:22;;;;;;;22.23;4.77;;;0.30;97.00;;;;;;10471348;28;20056;-68
2021/04/23 02:48:27;;;;;;;20.70;4.80;;;0.30;97.10;;;;;;10473110;28;20049;-68
2021/04/23 02:53:30;;;;;;;25.67;4.67;;;0.40;97.40;;;;;;10472514;28;20140;-68
2021/04/23 02:58:32;;;;;;;17.50;4.27;;;0.40;96.70;;;;;;10469775;28;20042;-68
2021/04/23 03:03:33;;;;;;;20.90;4.67;;;0.30;99.20;;;;;;10471955;28;20045;-68
2021/04/23 03:08:36;;;;;;;17.53;4.73;;;0.30;97.10;;;;;;10471079;28;20048;-68
2021/04/23 03:13:39;;;;;;;16.85;5.10;;;0.40;97.40;;;;;;10473565;28;20083;-69
2021/04/23 03:18:42;;;;;;;32.03;5.00;;;0.30;99.20;;;;;;10473803;28;20079;-69
2021/04/23 03:23:45;;;;;;;23.27;5.60;;;0.40;99.90;;;;;;10473897;28;20045;-68
2021/04/23 03:28:47;;;;;;;19.80;5.82;;;0.60;99.90;;;;;;10472724;28;20056;-68
2021/04/23 03:33:49;;;;;;;19.05;4.47;;;0.40;97.80;;;;;;10472469;28;20163;-68
2021/04/23 03:38:51;;;;;;;28.30;5.47;;;3.70;99.90;;;;;;10473046;28;20064;-68
2021/04/23 03:43:53;;;;;;;25.00;5.60;;;0.40;97.60;;;;;;10472713;28;20036;-68
2021/04/23 03:48:55;;;;;;;15.83;5.03;;;0.20;99.90;;;;;;10473944;28;20057;-68
2021/04/23 03:53:57;;;;;;;21.87;5.63;;;0.30;99.90;;;;;;10472667;28;20119;-68
2021/04/23 03:58:59;;;;;;;23.97;5.07;;;0.00;99.90;;;;;;10472599;28;20057;-68
2021/04/23 04:04:00;;;;;;;19.23;6.00;;;0.20;97.70;;;;;;10470984;28;20753;-68
2021/04/23 04:09:03;;;;;;;19.00;5.67;;;0.40;99.80;;;;;;10471383;28;20139;-68
2021/04/23 04:14:05;;;;;;;21.08;5.45;;;0.10;97.60;;;;;;10470066;28;20508;-68
2021/04/23 04:19:07;;;;;;;29.03;4.63;;;0.30;99.90;;;;;;10477015;28;20151;-68
2021/04/23 04:24:09;;;;;;;28.23;5.33;;;0.20;97.90;;;;;;10478598;28;20852;-68
2021/04/23 04:29:11;;;;;;;24.98;5.45;;;0.10;99.80;;;;;;10479229;28;20083;-68
2021/04/23 04:34:13;;;;;;;21.37;5.60;;;0.20;99.90;;;;;;10477242;28;20131;-68
2021/04/23 04:39:15;;;;;;;32.23;6.93;;;0.30;97.90;;;;;;10478736;28;20044;-68
2021/04/23 04:44:16;;;;;;;21.03;5.67;;;0.60;99.30;;;;;;10479274;28;20048;-68
2021/04/23 04:49:18;;;;;;;15.93;4.97;;;0.40;97.10;;;;;;10479447;28;20481;-68
2021/04/23 04:54:20;;;;;;;20.50;6.23;;;0.50;97.00;;;;;;10479316;28;20074;-68
2021/04/23 04:59:21;;;;;;;25.70;6.23;;;1.00;99.60;;;;;;10478524;28;20072;-72
2021/04/23 05:04:23;;;;;;;21.53;6.37;;;1.30;99.60;;;;;;10467683;28;20040;-68
2021/04/23 05:09:25;;;;;;;19.48;5.68;;;1.20;97.50;;;;;;10472338;28;20052;-69
2021/04/23 05:14:27;;;;;;;13.45;5.88;;;2.20;98.20;;;;;;10474553;28;20082;-70
2021/04/23 05:19:28;;;;;;;9.95;5.53;;;5.80;96.20;;;;;;10473424;28;20075;-70
2021/04/23 05:24:30;;;;;;;20.23;4.70;;;5.40;94.00;;;;;;10478113;28;20503;-68
2021/04/23 05:29:32;;;;;;;13.60;4.03;;;8.00;87.90;;;;;;10476074;28;20070;-68
2021/04/23 05:34:33;;;;;;;17.00;5.00;;;10.70;77.90;;;;;;10475581;28;20076;-70
2021/04/23 05:39:36;;;;;;;15.10;4.40;;;12.30;71.50;;;;;;10473303;28;20044;-69
2021/04/23 05:44:37;;;;;;;20.02;4.55;;;13.60;67.10;;;;;;10474482;28;20048;-69
2021/04/23 05:49:39;;;;;;;19.05;4.57;;;15.40;61.20;;;;;;10471313;28;20707;-70
2021/04/23 05:54:41;;;;;;;18.10;5.45;;;17.10;55.70;;;;;;10474622;28;20144;-70
2021/04/23 05:59:42;;;;;;;21.83;4.18;;;18.40;52.30;;;;;;10474054;28;20131;-68
2021/04/23 06:04:44;;;;;;;21.05;4.00;;;19.30;50.00;;;;;;10474243;28;20052;-69
2021/04/23 06:09:46;;;;;;;14.47;3.43;;;20.00;48.80;;;;;;10473688;28;20230;-69
2021/04/23 06:14:47;;;;;;;15.25;3.05;;;20.70;47.30;;;;;;10471235;28;20533;-68
2021/04/23 06:19:49;;;;;;;16.03;3.77;;;21.70;45.80;;;;;;10470779;28;20052;-69
2021/04/23 06:24:51;;;;;;;10.60;3.23;;;22.90;44.20;;;;;;10472877;28;20057;-69
2021/04/23 06:29:52;;;;;;;17.13;3.65;;;25.30;43.20;;;;;;10468052;28;20071;-67
2021/04/23 06:34:54;;;;;;;13.47;3.63;;;23.60;39.70;;;;;;10474449;28;20161;-67
2021/04/23 06:39:56;;;;;;;18.67;3.42;;;23.90;38.10;;;;;;10474308;28;20605;-68
2021/04/23 06:44:57;;;;;;;9.50;2.80;;;24.30;37.10;;;;;;10474048;28;20186;-67
2021/04/23 06:49:58;;;;;;;8.50;1.98;;;24.90;34.60;;;;;;10474677;28;20072;-67
2021/04/23 06:55:01;;;;;;;8.55;1.90;;;24.90;33.20;;;;;;10472329;28;20048;-67
2021/04/23 07:00:05;;;;;;;12.32;1.77;;;25.20;32.40;;;;;;10473228;28;20474;-67
2021/04/23 07:05:08;;;;;;;10.43;2.33;;;25.60;31.60;;;;;;10473423;28;20045;-70
2021/04/23 07:10:12;;;;;;;5.93;2.10;;;25.70;30.50;;;;;;10473549;28;20076;-67
2021/04/23 07:15:18;;;;;;;11.13;2.58;;;26.30;30.00;;;;;;10472610;28;20075;-68
2021/04/23 07:20:20;;;;;;;12.30;2.65;;;26.90;29.30;;;;;;10472207;28;20222;-69
2021/04/23 07:25:24;;;;;;;6.60;2.30;;;27.10;28.50;;;;;;10472542;28;20495;-68
2021/04/23 07:30:28;;;;;;;12.60;2.28;;;27.30;28.80;;;;;;10471837;28;20510;-68
2021/04/23 07:35:29;;;;;;;11.77;2.63;;;28.20;28.70;;;;;;10475604;28;20036;-69
2021/04/23 07:40:32;;;;;;;9.57;2.10;;;28.50;27.60;;;;;;10475300;28;20057;-67
2021/04/23 07:45:33;;;;;;;12.77;2.40;;;29.30;27.30;;;;;;10472087;28;20139;-70
2021/04/23 07:50:35;;;;;;;10.30;2.38;;;29.30;27.40;;;;;;10472021;28;20468;-66
2021/04/23 07:55:39;;;;;;;9.93;2.60;;;30.10;27.20;;;;;;10470100;28;20040;-67
2021/04/23 08:00:41;;;;;;;13.43;2.22;;;31.40;26.60;;;;;;10471879;28;20056;-68
2021/04/23 08:05:42;;;;;;;10.63;2.42;;;31.30;25.90;;;;;;10471496;28;20052;-69
2021/04/23 08:10:44;;;;;;;10.13;2.35;;;31.80;26.30;;;;;;10470931;28;20114;-69
2021/04/23 08:15:46;;;;;;;7.68;2.00;;;30.40;25.30;;;;;;10469964;28;20148;-69
2021/04/23 08:20:48;;;;;;;8.07;1.30;;;30.20;25.50;;;;;;10470704;28;20049;-69
2021/04/23 08:25:52;;;;;;;9.75;2.20;;;30.30;25.40;;;;;;10469843;28;20048;-69
2021/04/23 08:30:53;;;;;;;7.95;1.58;;;29.60;25.10;;;;;;10470330;28;20488;-69
2021/04/23 08:35:55;;;;;;;5.63;1.60;;;29.60;24.90;;;;;;10468346;28;20044;-69
2021/04/23 08:40:58;;;;;;;8.07;1.85;;;29.20;25.40;;;;;;10471945;28;20143;-69
2021/04/23 08:45:59;;;;;;;7.03;1.50;;;29.30;25.60;;;;;;10470485;28;20047;-68
2021/04/23 08:51:01;;;;;;;7.10;1.98;;;29.40;25.20;;;;;;10471320;28;20056;-69
2021/04/23 08:56:04;;;;;;;5.88;1.92;;;28.40;25.20;;;;;;10471917;28;20088;-68
2021/04/23 09:01:05;;;;;;;7.57;1.77;;;27.80;25.30;;;;;;10471261;28;20094;-69
2021/04/23 09:06:11;;;;;;;6.53;1.45;;;28.40;25.80;;;;;;10477989;28;20396;-69
2021/04/23 09:11:18;;;;;;;6.75;1.40;;;27.70;25.50;;;;;;10476375;28;20623;-69
2021/04/23 09:16:21;;;;;;;8.88;2.13;;;26.80;25.60;;;;;;10477502;28;20127;-69
2021/04/23 09:21:22;;;;;;;5.93;1.50;;;26.60;25.90;;;;;;10478231;28;20055;-68
2021/04/23 09:26:32;;;;;;;7.78;1.60;;;26.50;25.90;;;;;;10476872;28;20054;-68
2021/04/23 09:31:35;;;;;;;7.88;1.45;;;26.50;25.50;;;;;;10476568;28;20479;-69
2021/04/23 09:36:43;;;;;;;3.55;1.40;;;26.70;24.80;;;;;;10475552;28;20731;-69
2021/04/23 09:41:58;;;;;;;7.75;1.38;;;26.80;25.00;;;;;;10476210;28;20045;-68
2021/04/23 09:47:02;;;;;;;6.93;1.33;;;27.00;26.10;;;;;;10476518;28;20047;-69
2021/04/23 09:52:06;;;;;;;3.95;1.20;;;26.70;25.40;;;;;;10476774;28;20044;-68
2021/04/23 09:57:17;;;;;;;6.40;1.30;;;26.20;24.90;;;;;;10477119;28;20084;-69
2021/04/23 10:02:20;;;;;;;7.55;1.65;;;25.80;25.00;;;;;;10476488;28;20052;-68
2021/04/23 10:07:23;;;;;;;10.55;1.58;;;25.80;25.40;;;;;;10480379;28;20057;-68
2021/04/23 10:12:34;;;;;;;5.15;1.50;;;26.40;24.90;;;;;;10476664;28;20051;-68
2021/04/23 10:17:36;;;;;;;11.32;1.80;;;26.30;25.50;;;;;;10474856;28;20495;-68
2021/04/23 10:22:38;;;;;;;6.18;1.60;;;25.70;26.00;;;;;;10477305;28;20048;-68
2021/04/23 10:27:42;;;;;;;7.28;1.65;;;25.80;26.50;;;;;;10476366;28;20417;-69
2021/04/23 10:32:47;;;;;;;5.30;1.30;;;25.70;26.60;;;;;;10476774;28;20048;-68
2021/04/23 10:37:49;;;;;;;6.88;1.35;;;25.70;26.20;;;;;;10476171;28;20063;-68
2021/04/23 10:42:53;;;;;;;6.68;1.38;;;25.50;26.00;;;;;;10477669;28;20089;-68
2021/04/23 10:47:57;;;;;;;4.95;1.50;;;25.30;27.00;;;;;;10475858;28;20090;-70
2021/04/23 10:53:04;;;;;;;8.60;1.92;;;25.10;27.10;;;;;;10476477;28;20052;-68
2021/04/23 10:58:06;;;;;;;6.18;1.38;;;24.30;27.60;;;;;;10478972;28;20170;-68
2021/04/23 11:03:29;;;;;;;8.82;1.73;;;23.50;28.40;;;;;;10473209;28;20054;-69
2021/04/23 11:08:33;;;;;;;8.70;1.40;;;23.40;29.00;;;;;;10474224;28;20072;-69
2021/04/23 11:13:36;;;;;;;8.25;1.60;;;23.20;29.10;;;;;;10469062;28;20068;-68
2021/04/23 11:18:37;;;;;;;7.07;2.10;;;23.20;29.20;;;;;;10474891;28;20052;-68
2021/04/23 11:24:10;;;;;;;6.88;1.80;;;22.90;30.10;;;;;;10473540;28;20076;-67
2021/04/23 11:29:12;;;;;;;8.43;1.40;;;22.90;30.00;;;;;;10470986;28;20143;-68
2021/04/23 11:34:29;;;;;;;7.43;1.60;;;23.40;29.30;;;;;;10467253;28;20610;-69
2021/04/23 11:39:32;;;;;;;7.70;2.05;;;23.20;29.50;;;;;;10469166;28;20557;-68
2021/04/23 11:45:03;;;;;;;6.28;1.50;;;22.90;29.50;;;;;;10469621;28;20144;-70
2021/04/23 11:50:11;;;;;;;8.18;1.98;;;22.60;30.50;;;;;;10469887;28;20461;-67
2021/04/23 11:55:16;;;;;;;15.43;1.95;;;22.50;30.70;;;;;;10470290;28;21231;-68
2021/04/23 12:00:22;;;;;;;9.52;1.58;;;22.40;31.00;;;;;;10470494;28;20071;-69
2021/04/23 12:05:26;;;;;;;9.57;1.98;;;22.70;30.70;;;;;;10469545;28;20076;-70
2021/04/23 12:10:31;;;;;;;8.75;1.50;;;22.50;30.00;;;;;;10470540;28;20044;-71
2021/04/23 12:15:34;;;;;;;8.85;1.98;;;22.50;29.40;;;;;;10468547;28;20047;-68
2021/04/23 12:20:40;;;;;;;5.70;1.48;;;22.40;28.50;;;;;;10469984;28;20209;-69
2021/04/23 12:25:43;;;;;;;8.63;1.45;;;21.90;29.60;;;;;;10469662;28;20070;-68
2021/04/23 12:30:47;;;;;;;8.30;1.50;;;21.70;30.00;;;;;;10469724;28;20441;-69
2021/04/23 12:35:50;;;;;;;5.90;1.33;;;21.60;30.10;;;;;;10469004;28;20047;-67
2021/04/23 12:40:52;;;;;;;9.25;1.75;;;21.40;30.00;;;;;;10476499;28;20635;-68
2021/04/23 12:45:56;;;;;;;6.97;1.70;;;21.30;30.80;;;;;;10478394;28;20051;-68
2021/04/23 12:50:57;;;;;;;13.13;1.80;;;21.10;31.60;;;;;;10478001;28;20058;-68
2021/04/23 12:55:59;;;;;;;;;;;20.90;31.30;;;;;;10479918;28;21368;-69
2021/04/23 13:01:04;;;;;;;8.67;1.97;;;20.50;31.80;;;;;;10477771;28;19920;-70
2021/04/23 13:06:05;;;;;;;8.35;1.65;;;20.30;33.40;;;;;;10477146;28;20713;-69
2021/04/23 13:11:07;;;;;;;;;;;20.20;33.80;;;;;;10477909;28;20152;-77
2021/04/23 13:16:09;;;;;;;9.52;1.60;;;19.80;34.70;;;;;;10476936;28;20408;-67
2021/04/23 13:21:10;;;;;;;10.15;2.10;;;20.20;35.40;;;;;;10478229;28;20068;-68
2021/04/23 13:26:13;;;;;;;15.75;2.15;;;19.60;35.70;;;;;;10479235;28;20068;-69
2021/04/23 13:31:17;;;;;;;9.82;1.73;;;19.70;36.10;;;;;;10479110;28;20082;-67
2021/04/23 13:36:21;;;;;;;10.23;1.92;;;19.60;35.40;;;;;;10476269;28;20076;-69
2021/04/23 13:41:27;;;;;;;10.27;1.98;;;19.20;36.20;;;;;;10476851;28;20101;-68
2021/04/23 13:46:32;;;;;;;10.98;1.83;;;19.30;36.70;;;;;;10472331;28;20041;-69
2021/04/23 13:51:35;;;;;;;5.88;1.95;;;19.10;37.30;;;;;;10469685;28;20163;-66
2021/04/23 13:56:39;;;;;;;6.80;1.95;;;18.60;38.00;;;;;;10468156;28;20040;-69
2021/04/23 14:01:49;;;;;;;7.55;1.67;;;18.30;39.20;;;;;;10466914;28;21056;-67
2021/04/23 14:06:51;;;;;;;9.43;1.90;;;17.90;40.00;;;;;;10468947;28;20047;-68
2021/04/23 14:11:54;;;;;;;8.73;1.98;;;17.70;40.70;;;;;;10466456;28;20056;-67
2021/04/23 14:16:58;;;;;;;7.10;1.30;;;17.40;41.50;;;;;;10470050;28;20097;-67
2021/04/23 14:21:59;;;;;;;10.77;1.65;;;17.10;42.40;;;;;;10470181;28;20054;-68
2021/04/23 14:27:01;;;;;;;9.57;1.83;;;17.00;42.80;;;;;;10467691;28;20593;-68
2021/04/23 14:32:05;;;;;;;12.60;2.50;;;17.00;43.40;;;;;;10467231;28;20044;-68
2021/04/23 14:37:06;;;;;;;9.27;1.90;;;16.90;43.90;;;;;;10468559;28;20048;-68
2021/04/23 14:42:07;;;;;;;7.70;1.70;;;16.90;44.40;;;;;;10469023;28;20080;-67
2021/04/23 14:47:10;;;;;;;9.38;2.28;;;16.80;44.80;;;;;;10466872;28;20064;-68
2021/04/23 14:52:11;;;;;;;;;;;16.60;45.60;;;;;;10469444;28;20097;-67
2021/04/23 14:57:12;;;;;;;17.60;2.08;;;16.30;46.80;;;;;;10468895;28;19917;-68
2021/04/23 15:02:14;;;;;;;12.20;2.05;;;15.90;47.90;;;;;;10466086;28;20048;-68
2021/04/23 15:07:15;;;;;;;6.72;2.10;;;15.70;48.40;;;;;;10465693;28;20130;-66
2021/04/23 15:12:17;;;;;;;10.57;2.00;;;15.40;49.00;;;;;;10467167;28;20102;-65
2021/04/23 15:17:19;;;;;;;8.30;2.55;;;15.20;49.60;;;;;;10459416;28;20071;-66
2021/04/23 15:22:20;;;;;;;11.93;1.83;;;15.20;50.40;;;;;;10463915;28;20059;-65
2021/04/23 15:27:21;;;;;;;11.57;2.13;;;15.10;49.90;;;;;;10463417;28;20135;-65
2021/04/23 15:32:24;;;;;;;10.38;1.95;;;14.80;51.50;;;;;;10462188;28;20086;-65
2021/04/23 15:37:25;;;;;;;;;;;14.60;52.40;;;;;;10463731;28;20489;-66
2021/04/23 15:42:27;;;;;;;7.47;1.85;;;14.40;53.40;;;;;;10462008;28;19916;-64
2021/04/23 15:47:29;;;;;;;10.70;1.70;;;14.30;53.90;;;;;;10462312;28;20048;-65
2021/04/23 15:52:31;;;;;;;7.40;1.52;;;14.20;55.60;;;;;;10460284;28;20056;-65
2021/04/23 15:57:32;;;;;;;12.15;1.90;;;14.50;56.90;;;;;;10461204;28;20044;-64
2021/04/23 16:02:34;;;;;;;7.45;1.70;;;14.00;57.50;;;;;;10460427;28;20049;-65
2021/04/23 16:07:36;;;;;;;13.77;2.00;;;14.00;57.60;;;;;;10459860;28;20078;-65
2021/04/23 16:12:37;;;;;;;7.40;1.48;;;13.70;57.80;;;;;;10456097;28;20050;-68
2021/04/23 16:17:40;;;;;;;12.73;2.13;;;13.30;61.00;;;;;;10460056;28;20055;-65
2021/04/23 16:22:42;;;;;;;12.23;2.13;;;13.00;62.60;;;;;;10457875;28;20095;-66
2021/04/23 16:27:43;;;;;;;11.85;2.20;;;12.80;63.40;;;;;;10460006;28;20110;-66
2021/04/23 16:32:47;;;;;;;13.38;2.03;;;12.50;65.90;;;;;;10458196;28;20044;-67
2021/04/23 16:37:49;;;;;;;11.82;2.45;;;12.30;68.50;;;;;;10459200;28;20059;-65
2021/04/23 16:42:52;;;;;;;9.63;2.53;;;12.20;69.40;;;;;;10426302;28;1130178;-65
2021/04/23 16:47:54;;;;;;;;;;;12.10;71.50;;;;;;10461607;28;20110;-66
2021/04/23 16:52:56;;;;;;;15.82;2.65;;;11.90;72.60;;;;;;10461968;28;20325;-66
2021/04/23 16:57:57;;;;;;;13.93;2.07;;;11.70;74.10;;;;;;10461282;28;20060;-66
2021/04/23 17:02:59;;;;;;;14.18;2.80;;;11.50;74.30;;;;;;10459326;28;20049;-66
2021/04/23 17:08:01;;;;;;;11.97;2.57;;;11.50;75.50;;;;;;10460479;28;20068;-64
2021/04/23 17:13:02;;;;;;;10.48;2.70;;;11.30;76.10;;;;;;10458849;28;20049;-65
2021/04/23 17:18:05;;;;;;;13.00;2.92;;;11.20;77.30;;;;;;10456355;28;20044;-65
2021/04/23 17:23:06;;;;;;;10.35;2.85;;;10.80;82.40;;;;;;10460657;28;20086;-69
2021/04/23 17:28:08;;;;;;;11.63;2.53;;;11.00;83.30;;;;;;10470329;28;20037;-68
2021/04/23 17:33:10;;;;;;;15.27;2.53;;;10.70;81.10;;;;;;10466253;28;20059;-68
2021/04/23 17:38:13;;;;;;;17.27;2.53;;;10.50;82.30;;;;;;10468295;28;20496;-71
2021/04/23 17:43:18;;;;;;;16.38;2.95;;;10.30;83.30;;;;;;10468272;28;20490;-66
2021/04/23 17:48:20;;;;;;;21.95;3.17;;;10.10;88.30;;;;;;10467186;28;20044;-67
2021/04/23 17:53:22;;;;;;;14.82;2.90;;;10.20;89.40;;;;;;10470987;28;20143;-68
2021/04/23 17:58:23;;;;;;;10.70;2.75;;;10.00;86.50;;;;;;10471968;28;20076;-67
2021/04/23 18:03:25;;;;;;;12.68;2.80;;;9.80;87.30;;;;;;10467613;28;20044;-67
2021/04/23 18:08:27;;;;;;;13.17;3.00;;;9.70;88.10;;;;;;10468767;28;20088;-67
2021/04/23 18:13:29;;;;;;;14.00;3.50;;;9.60;88.70;;;;;;10467485;28;20895;-68
2021/04/23 18:18:31;;;;;;;13.93;3.67;;;9.40;89.60;;;;;;10465222;28;20118;-67
2021/04/23 18:23:32;;;;;;;11.80;2.75;;;9.30;90.00;;;;;;10464351;28;20434;-67
2021/04/23 18:28:34;;;;;;;15.02;2.65;;;9.10;90.40;;;;;;10466024;28;20528;-66
2021/04/23 18:33:36;;;;;;;20.23;3.55;;;9.00;90.90;;;;;;10462099;28;20053;-69
2021/04/23 18:38:38;;;;;;;13.57;3.20;;;8.90;90.90;;;;;;10462785;28;20070;-67
2021/04/23 18:43:39;;;;;;;13.73;4.03;;;8.70;92.70;;;;;;10465697;28;20049;-68
2021/04/23 18:48:44;;;;;;;16.85;3.30;;;8.60;91.30;;;;;;10461452;28;20131;-66
2021/04/23 18:53:45;;;;;;;14.80;3.90;;;8.60;91.30;;;;;;10462762;28;20578;-66
2021/04/23 18:58:47;;;;;;;13.32;3.80;;;8.50;91.50;;;;;;10464438;28;20131;-67
2021/04/23 19:03:49;;;;;;;14.35;3.53;;;8.20;93.10;;;;;;10461432;28;20048;-66
2021/04/23 19:08:54;;;;;;;14.75;4.03;;;8.30;91.70;;;;;;10462190;28;20568;-68
2021/04/23 19:13:56;;;;;;;11.25;4.18;;;8.30;92.10;;;;;;10456711;28;20968;-67
2021/04/23 19:18:58;;;;;;;16.52;4.63;;;8.20;92.30;;;;;;10458731;28;20047;-68
2021/04/23 19:24:00;;;;;;;16.02;3.85;;;8.10;92.60;;;;;;10459395;28;20090;-67
2021/04/23 19:29:01;;;;;;;15.77;4.47;;;8.00;93.10;;;;;;10459495;28;20144;-67
2021/04/23 19:34:03;;;;;;;19.52;5.28;;;8.00;93.20;;;;;;10457839;28;20139;-68
2021/04/23 19:39:06;;;;;;;16.40;4.93;;;7.90;93.40;;;;;;10460350;28;20510;-67
2021/04/23 19:44:07;;;;;;;18.20;4.45;;;7.60;93.40;;;;;;10460571;28;20513;-67
2021/04/23 19:49:09;;;;;;;10.77;4.47;;;7.90;93.80;;;;;;10460431;28;20052;-69
2021/04/23 19:54:10;;;;;;;19.67;5.15;;;7.90;93.90;;;;;;10459028;28;20091;-70
2021/04/23 19:59:12;;;;;;;20.73;4.88;;;7.80;94.00;;;;;;10458103;28;20091;-70
2021/04/23 20:04:14;;;;;;;17.63;6.00;;;7.70;94.20;;;;;;10470871;28;20064;-69
2021/04/23 20:09:15;;;;;;;21.70;5.80;;;7.60;94.60;;;;;;10460920;28;20144;-68
2021/04/23 20:14:17;;;;;;;17.67;5.10;;;9.10;95.10;;;;;;10456821;28;20078;-66
2021/04/23 20:19:19;;;;;;;29.08;6.18;;;7.50;95.20;;;;;;10458656;28;20052;-67
2021/04/23 20:24:21;;;;;;;23.73;5.70;;;7.50;95.60;;;;;;10457445;28;20045;-69
2021/04/23 20:29:22;;;;;;;20.20;6.28;;;7.50;95.60;;;;;;10460631;28;20475;-67
2021/04/23 20:34:27;;;;;;;22.52;6.35;;;7.50;95.90;;;;;;10457346;28;20143;-68
2021/04/23 20:39:28;;;;;;;19.83;6.65;;;7.50;96.00;;;;;;10462025;28;20048;-69
2021/04/23 20:44:30;;;;;;;19.27;5.88;;;7.40;96.20;;;;;;10462215;28;20059;-68
2021/04/23 20:49:32;;;;;;;23.30;7.22;;;7.30;96.30;;;;;;10460752;28;20071;-68
2021/04/23 20:54:34;;;;;;;21.63;5.85;;;7.30;96.70;;;;;;10462908;28;20079;-66
2021/04/23 20:59:35;;;;;;;15.23;6.20;;;7.30;96.80;;;;;;10475968;28;20056;-68
2021/04/23 21:04:39;;;;;;;22.10;6.63;;;7.20;97.00;;;;;;10472536;28;20083;-67
2021/04/23 21:09:40;;;;;;;25.83;7.07;;;7.20;97.30;;;;;;10469239;28;20084;-67
2021/04/23 21:14:41;;;;;;;22.08;6.57;;;7.10;97.50;;;;;;10468047;28;20052;-69
2021/04/23 21:19:44;;;;;;;19.55;7.28;;;7.10;97.60;;;;;;10468887;28;20051;-66
2021/04/23 21:24:45;;;;;;;16.70;6.10;;;7.00;98.00;;;;;;10476899;28;20072;-68
2021/04/23 21:29:46;;;;;;;27.90;7.10;;;6.90;98.10;;;;;;10470367;28;20071;-67
2021/04/23 21:34:48;;;;;;;18.95;6.43;;;6.80;98.10;;;;;;10468387;28;20052;-69
2021/04/23 21:39:50;;;;;;;21.45;7.25;;;6.80;98.20;;;;;;10468208;28;20544;-67
2021/04/23 21:44:51;;;;;;;25.35;6.82;;;6.70;98.40;;;;;;10446984;28;20083;-68
2021/04/23 21:49:55;;;;;;;23.25;7.72;;;6.60;98.40;;;;;;10467793;28;20043;-68
2021/04/23 21:54:57;;;;;;;22.58;7.07;;;6.50;98.60;;;;;;10465753;28;20495;-68
2021/04/23 21:59:58;;;;;;;23.60;6.93;;;6.40;98.50;;;;;;10466957;28;20040;-68
2021/04/23 22:05:00;;;;;;;25.63;6.65;;;6.40;98.50;;;;;;10468513;28;20076;-69
2021/04/23 22:10:03;;;;;;;18.27;6.47;;;6.30;98.30;;;;;;10467063;28;20192;-68
2021/04/23 22:15:07;;;;;;;25.17;6.63;;;6.30;98.20;;;;;;10465043;28;20067;-69
2021/04/23 22:20:11;;;;;;;18.77;6.35;;;6.20;97.90;;;;;;10466760;28;20049;-68
2021/04/23 22:25:15;;;;;;;19.27;5.93;;;6.20;97.60;;;;;;10466951;28;20472;-69
2021/04/23 22:30:20;;;;;;;12.68;5.63;;;6.30;97.30;;;;;;10467180;28;20101;-68
2021/04/23 22:35:25;;;;;;;13.02;6.05;;;6.30;96.70;;;;;;10466623;28;20044;-68
2021/04/23 22:40:27;;;;;;;18.48;6.22;;;6.40;96.40;;;;;;10466171;28;20068;-67
2021/04/23 22:45:29;;;;;;;18.53;6.57;;;6.30;96.10;;;;;;10467281;28;20051;-68
2021/04/23 22:50:31;;;;;;;11.95;5.70;;;6.30;97.60;;;;;;10464421;28;20505;-68
2021/04/23 22:55:34;;;;;;;17.50;5.87;;;6.20;95.90;;;;;;10465102;28;20519;-68
2021/04/23 23:00:37;;;;;;;22.58;6.95;;;6.90;96.40;;;;;;10464058;28;20497;-68
2021/04/23 23:05:39;;;;;;;11.40;5.93;;;6.00;96.40;;;;;;10462900;28;20048;-67
2021/04/23 23:10:40;;;;;;;18.20;6.33;;;6.00;96.40;;;;;;10463285;28;20044;-66
2021/04/23 23:15:42;;;;;;;16.75;6.45;;;6.00;96.60;;;;;;10465586;28;20060;-68
2021/04/23 23:20:44;;;;;;;17.20;6.32;;;6.00;96.60;;;;;;10465644;28;20056;-68
2021/04/23 23:25:46;;;;;;;20.70;7.43;;;5.90;96.60;;;;;;10465499;28;20060;-67
2021/04/23 23:30:47;;;;;;;21.08;6.85;;;5.90;96.70;;;;;;10464640;28;20093;-68
2021/04/23 23:35:49;;;;;;;19.17;6.75;;;5.80;96.60;;;;;;10462292;28;20048;-68
2021/04/23 23:40:50;;;;;;;26.02;8.20;;;5.70;96.70;;;;;;10464136;28;20184;-67
2021/04/23 23:45:52;;;;;;;15.95;6.97;;;5.50;96.90;;;;;;10461551;28;20044;-68
2021/04/23 23:50:54;;;;;;;22.30;7.22;;;5.40;97.10;;;;;;10462865;28;20174;-68
2021/04/23 23:55:55;;;;;;;16.58;6.70;;;5.30;97.00;;;;;;10462179;28;20044;-67
